-16.99C
небольшой снег
небольшой снег
Дата и времяТемператураДавление, мм рт.ст.Влажность, %Осадки
МинимумМаксимум
07.12.2022 05:00-20.52C-16.99C77492пасмурно
07.12.2022 08:00-19.73C-17.9C77494пасмурно
07.12.2022 11:00-17.11C-17.07C77494пасмурно
07.12.2022 14:00-15.56C-15.56C77293пасмурно
07.12.2022 17:00-16.22C-16.22C77194пасмурно
07.12.2022 20:00-15.68C-15.68C77193пасмурно
07.12.2022 23:00-16.15C-16.15C76994пасмурно
08.12.2022 02:00-16.4C-16.4C76894пасмурно
08.12.2022 05:00-16.07C-16.07C76791пасмурно
08.12.2022 08:00-15.61C-15.61C76588пасмурно
08.12.2022 11:00-14.3C-14.3C76590пасмурно
08.12.2022 14:00-13.4C-13.4C76595небольшой снег
08.12.2022 17:00-12.92C-12.92C76594небольшой снег
08.12.2022 20:00-12.94C-12.94C76594небольшой снег
08.12.2022 23:00-13.38C-13.38C76594пасмурно
09.12.2022 02:00-14.12C-14.12C76595пасмурно
09.12.2022 05:00-14.17C-14.17C76595пасмурно
09.12.2022 08:00-14.76C-14.76C76596пасмурно
09.12.2022 11:00-13.24C-13.24C76594небольшой снег
09.12.2022 14:00-12.88C-12.88C76594небольшой снег
09.12.2022 17:00-13.48C-13.48C76595пасмурно
09.12.2022 20:00-13.82C-13.82C76594небольшой снег
09.12.2022 23:00-15.73C-15.73C76695небольшой снег
10.12.2022 02:00-19.03C-19.03C76795небольшой снег
10.12.2022 05:00-26.64C-26.64C76894пасмурно
10.12.2022 08:00-28.61C-28.61C76992небольшая облачность
10.12.2022 11:00-26.93C-26.93C77096переменная облачность
10.12.2022 14:00-25.79C-25.79C77197пасмурно
10.12.2022 17:00-24.71C-24.71C77397пасмурно
10.12.2022 20:00-26.85C-26.85C77495облачно с прояснениями
10.12.2022 23:00-28.75C-28.75C77597переменная облачность
11.12.2022 02:00-29.99C-29.99C77798небольшая облачность
11.12.2022 05:00-31.82C-31.82C778100переменная облачность
11.12.2022 08:00-32.86C-32.86C780100облачно с прояснениями
11.12.2022 11:00-30.4C-30.4C78099облачно с прояснениями
11.12.2022 14:00-29.94C-29.94C78099переменная облачность
11.12.2022 17:00-28.02C-28.02C78098переменная облачность
11.12.2022 20:00-24.75C-24.75C77892пасмурно
11.12.2022 23:00-20.13C-20.13C77488пасмурно
12.12.2022 02:00-14.79C-14.79C77092небольшой снег
Дата и время наблюдения: 07.12.2022 04:00:15